Time;durP1;ratioP1;P1;durP2;ratioP2;P2;SDS_P1;SDS_P2;PMS_P1;PMS_P2;Temp;Humidity;BMP_temperature;BMP_pressure;BME280_temperature;BME280_humidity;BME280_pressure;Samples;Min_cycle;Max_cycle;Signal;HPM_P1;HPM_P2
2021/04/13 00:01:15;;;;;;;6.40;2.80;;;4.20;1.00;;;;;;5086586;28;20199;-80
2021/04/13 00:03:43;;;;;;;4.80;2.70;;;4.40;99.90;;;;;;5092072;28;20194;-79
2021/04/13 00:06:20;;;;;;;5.27;2.80;;;4.40;99.90;;;;;;5105436;28;20205;-79
2021/04/13 00:08:51;;;;;;;4.77;2.97;;;4.40;99.90;;;;;;5089620;28;20223;-78
2021/04/13 00:11:22;;;;;;;7.40;3.43;;;4.30;1.00;;;;;;5090629;28;20194;-80
2021/04/13 00:13:52;;;;;;;4.60;3.20;;;4.20;99.90;;;;;;5089746;28;20196;-79
2021/04/13 00:16:21;;;;;;;4.43;2.93;;;4.00;1.00;;;;;;5086196;28;20199;-80
2021/04/13 00:18:51;;;;;;;3.93;2.70;;;4.00;99.90;;;;;;5088164;28;20220;-80
2021/04/13 00:21:37;;;;;;;5.47;3.23;;;3.90;1.00;;;;;;5104860;28;20198;-78
2021/04/13 00:24:18;;;;;;;6.97;3.20;;;4.20;1.00;;;;;;5090448;28;20199;-79
2021/04/13 00:26:54;;;;;;;5.90;2.83;;;4.40;99.90;;;;;;5105774;28;20285;-79
2021/04/13 00:29:24;;;;;;;3.57;2.50;;;4.50;16.20;;;;;;5106077;28;20256;-79
2021/04/13 00:31:56;;;;;;;5.03;3.13;;;4.50;1.00;;;;;;5088391;28;20280;-80
2021/04/13 00:34:24;;;;;;;4.17;3.20;;;4.60;1.00;;;;;;5106879;27;20190;-79
2021/04/13 00:36:52;;;;;;;4.60;3.13;;;4.30;74.10;;;;;;5102170;28;20719;-80
2021/04/13 00:39:22;;;;;;;4.47;2.53;;;4.40;99.90;;;;;;5108762;28;20190;-79
2021/04/13 00:42:11;;;;;;;5.60;2.77;;;4.30;1.00;;;;;;5101806;28;20210;-80
2021/04/13 00:44:46;;;;;;;6.27;2.77;;;4.50;1.00;;;;;;5105838;28;20288;-80
2021/04/13 00:47:26;;;;;;;6.10;2.73;;;4.40;46.20;;;;;;5087984;28;20213;-79
2021/04/13 00:49:56;;;;;;;4.47;2.23;;;4.50;1.00;;;;;;5098807;28;20255;-79
2021/04/13 00:52:53;;;;;;;4.00;2.30;;;4.50;99.90;;;;;;5083692;28;20786;-78
2021/04/13 00:55:25;;;;;;;3.27;2.50;;;4.50;99.90;;;;;;5084165;28;20213;-79
2021/04/13 00:58:08;;;;;;;2.93;1.97;;;4.60;1.00;;;;;;5074587;28;20245;-80
2021/04/13 01:00:41;;;;;;;3.57;2.13;;;4.30;1.00;;;;;;5094635;28;20212;-79
2021/04/13 01:03:07;;;;;;;2.90;1.63;;;4.20;1.00;;;;;;5105839;27;20198;-79
2021/04/13 01:05:38;;;;;;;3.37;2.10;;;4.10;99.90;;;;;;5089066;28;20189;-79
2021/04/13 01:08:18;;;;;;;3.50;2.13;;;4.10;1.00;;;;;;5090568;28;20219;-79
2021/04/13 01:10:45;;;;;;;2.63;1.73;;;4.20;1.00;;;;;;5109509;28;20262;-80
2021/04/13 01:13:20;;;;;;;5.73;1.57;;;4.20;99.90;;;;;;5069931;28;20245;-79
2021/04/13 01:15:50;;;;;;;3.07;1.93;;;4.20;99.90;;;;;;5093742;28;20215;-79
2021/04/13 01:18:20;;;;;;;2.07;1.80;;;4.10;1.00;;;;;;5089074;28;20248;-78
2021/04/13 01:20:59;;;;;;;4.07;1.67;;;4.10;1.00;;;;;;5095269;28;20190;-79
2021/04/13 01:23:47;;;;;;;2.43;1.60;;;4.10;1.00;;;;;;5091644;28;20206;-79
2021/04/13 01:26:14;;;;;;;3.17;1.67;;;4.10;1.00;;;;;;5115783;27;20262;-80
2021/04/13 01:28:43;;;;;;;3.30;1.90;;;4.10;1.00;;;;;;5093134;28;20314;-78
2021/04/13 01:31:13;;;;;;;9.27;1.93;;;4.10;1.00;;;;;;5091358;28;20236;-81
2021/04/13 01:33:50;;;;;;;4.17;2.10;;;4.10;1.00;;;;;;5105414;28;20229;-79
2021/04/13 01:36:31;;;;;;;2.00;1.50;;;4.00;1.00;;;;;;5094574;28;20215;-78
2021/04/13 01:39:13;;;;;;;3.20;2.30;;;3.90;1.00;;;;;;5091998;28;20191;-78
2021/04/13 01:42:03;;;;;;;5.77;1.90;;;4.00;1.00;;;;;;5091223;28;20256;-80
2021/04/13 01:44:43;;;;;;;6.13;2.67;;;4.10;1.00;;;;;;5109082;28;20251;-79
2021/04/13 01:47:14;;;;;;;2.73;1.70;;;4.00;1.00;;;;;;5093178;27;20197;-80
2021/04/13 01:49:48;;;;;;;4.67;2.30;;;4.00;1.00;;;;;;5109228;27;20212;-79
2021/04/13 01:52:26;;;;;;;4.53;2.40;;;4.10;1.00;;;;;;5089647;28;20247;-81
2021/04/13 01:54:54;;;;;;;5.33;2.30;;;4.00;99.90;;;;;;5108855;28;20193;-81
2021/04/13 01:57:41;;;;;;;5.73;2.70;;;3.70;1.00;;;;;;5087547;28;20257;-80
2021/04/13 02:00:22;;;;;;;4.07;2.37;;;3.30;1.00;;;;;;5106149;28;20247;-81
2021/04/13 02:03:00;;;;;;;3.87;2.87;;;3.20;1.00;;;;;;5109553;27;20650;-81
2021/04/13 02:05:29;;;;;;;7.90;2.73;;;3.20;1.00;;;;;;5089035;28;20238;-80
2021/04/13 02:08:06;;;;;;;4.30;2.37;;;3.30;1.00;;;;;;5092015;28;20265;-81
2021/04/13 02:10:45;;;;;;;3.80;2.60;;;3.40;1.00;;;;;;5092753;28;20230;-80
2021/04/13 02:13:26;;;;;;;3.67;2.57;;;3.50;1.00;;;;;;5091576;28;20244;-82
2021/04/13 02:16:19;;;;;;;3.57;2.30;;;3.40;1.00;;;;;;5107848;28;20246;-80
2021/04/13 02:18:49;;;;;;;4.47;2.70;;;3.30;1.00;;;;;;5090167;28;20653;-81
2021/04/13 02:21:19;;;;;;;5.07;3.37;;;3.20;1.00;;;;;;5088438;28;20202;-79
2021/04/13 02:23:52;;;;;;;5.97;2.57;;;3.50;1.00;;;;;;5109437;28;20720;-80
2021/04/13 02:26:23;;;;;;;4.50;2.77;;;3.60;1.00;;;;;;5092722;28;20285;-80
2021/04/13 02:28:51;;;;;;;5.90;3.37;;;3.60;1.00;;;;;;5075970;28;20306;-79
2021/04/13 02:31:36;;;;;;;5.53;2.93;;;3.60;1.00;;;;;;5091633;28;20206;-80
2021/04/13 02:34:17;;;;;;;3.13;2.83;;;3.40;1.00;;;;;;5081836;28;20316;-80
2021/04/13 02:36:49;;;;;;;4.20;3.47;;;3.60;1.00;;;;;;5105442;27;20202;-80
2021/04/13 02:39:21;;;;;;;4.60;3.63;;;3.60;1.00;;;;;;5086692;28;20199;-80
2021/04/13 02:42:05;;;;;;;7.13;4.33;;;3.60;1.00;;;;;;5082919;28;20291;-79
2021/04/13 02:44:32;;;;;;;5.37;3.33;;;3.70;1.00;;;;;;5087227;28;20222;-82
2021/04/13 02:47:07;;;;;;;6.47;3.67;;;3.60;1.00;;;;;;5085575;28;20277;-81
2021/04/13 02:49:40;;;;;;;7.03;3.83;;;3.40;1.00;;;;;;5101610;28;20198;-80
2021/04/13 02:52:13;;;;;;;5.73;4.13;;;3.30;1.00;;;;;;5090665;28;20538;-81
2021/04/13 02:54:48;;;;;;;6.90;4.03;;;3.50;1.00;;;;;;5091721;28;20589;-79
2021/04/13 02:57:26;;;;;;;7.80;3.53;;;3.50;1.00;;;;;;5110617;28;20193;-80
2021/04/13 03:00:00;;;;;;;7.57;4.07;;;3.50;1.00;;;;;;5102301;28;20190;-80
2021/04/13 03:02:37;;;;;;;8.17;3.60;;;3.60;1.00;;;;;;5091058;28;20220;-80
2021/04/13 03:05:05;;;;;;;6.03;3.87;;;3.60;1.00;;;;;;5087804;28;20214;-81
2021/04/13 03:07:32;;;;;;;9.00;4.00;;;3.50;1.00;;;;;;5088269;28;20202;-80
2021/04/13 03:10:09;;;;;;;8.07;4.30;;;3.40;1.00;;;;;;5093120;27;20560;-80
2021/04/13 03:12:42;;;;;;;5.30;4.00;;;3.20;1.00;;;;;;5091018;28;20218;-80
2021/04/13 03:15:14;;;;;;;5.30;3.83;;;3.10;1.00;;;;;;5103895;28;20190;-80
2021/04/13 03:17:48;;;;;;;5.60;3.80;;;3.00;1.00;;;;;;5091632;28;20191;-80
2021/04/13 03:20:21;;;;;;;8.37;4.33;;;3.10;1.00;;;;;;5084835;28;20247;-80
2021/04/13 03:22:51;;;;;;;5.90;4.13;;;2.70;1.00;;;;;;5087200;28;20199;-81
2021/04/13 03:25:17;;;;;;;10.63;4.27;;;2.70;55.10;;;;;;5077187;28;20221;-81
2021/04/13 03:27:46;;;;;;;5.50;3.90;;;2.70;31.60;;;;;;5088047;28;20202;-80
2021/04/13 03:30:22;;;;;;;6.40;3.93;;;2.80;77.10;;;;;;5105333;27;20600;-80
2021/04/13 03:33:05;;;;;;;6.37;4.17;;;2.90;1.00;;;;;;5084835;28;20266;-79
2021/04/13 03:35:33;;;;;;;6.97;4.40;;;2.80;2.90;;;;;;5088967;28;20197;-81
2021/04/13 03:38:02;;;;;;;6.17;4.50;;;2.80;31.70;;;;;;5088892;28;20190;-80
2021/04/13 03:40:33;;;;;;;5.27;4.40;;;2.90;28.70;;;;;;5072708;28;20222;-80
2021/04/13 03:43:06;;;;;;;7.20;4.37;;;2.80;1.00;;;;;;5087647;28;20203;-80
2021/04/13 03:45:36;;;;;;;7.37;4.47;;;2.60;1.00;;;;;;5090293;28;20209;-80
2021/04/13 03:48:08;;;;;;;9.27;4.80;;;2.60;99.90;;;;;;5072790;28;20263;-80
2021/04/13 03:50:39;;;;;;;7.07;4.20;;;2.50;99.90;;;;;;5105608;28;20201;-80
2021/04/13 03:53:14;;;;;;;7.83;4.40;;;2.50;99.90;;;;;;5085820;28;20742;-79
2021/04/13 03:56:04;;;;;;;9.73;4.00;;;2.70;99.10;;;;;;5086402;28;20662;-81
2021/04/13 03:58:35;;;;;;;7.87;4.40;;;2.60;66.00;;;;;;5085631;28;20243;-80
2021/04/13 04:01:03;;;;;;;6.87;4.20;;;2.80;99.90;;;;;;5085220;28;20258;-81
2021/04/13 04:03:34;;;;;;;7.00;4.57;;;3.00;31.70;;;;;;5104251;28;20702;-81
2021/04/13 04:06:02;;;;;;;6.97;4.47;;;2.90;1.00;;;;;;5064357;28;20214;-81
2021/04/13 04:08:46;;;;;;;11.43;4.70;;;3.00;1.00;;;;;;5095858;28;20211;-81
2021/04/13 04:11:13;;;;;;;8.53;4.83;;;3.10;1.00;;;;;;5076894;28;20194;-81
2021/04/13 04:13:49;;;;;;;6.57;4.93;;;2.90;1.00;;;;;;5075463;28;20615;-83
2021/04/13 04:16:32;;;;;;;6.23;4.60;;;2.40;1.00;;;;;;5083934;27;20805;-82
2021/04/13 04:19:14;;;;;;;7.37;4.57;;;2.20;99.90;;;;;;5094031;28;20258;-81
2021/04/13 04:21:45;;;;;;;8.50;5.20;;;2.40;99.90;;;;;;5109322;28;20190;-82
2021/04/13 04:24:31;;;;;;;8.27;4.07;;;2.70;99.90;;;;;;5092156;28;20257;-80
2021/04/13 04:27:31;;;;;;;7.50;4.80;;;2.70;7.50;;;;;;5106056;28;20190;-81
2021/04/13 04:30:20;;;;;;;6.87;4.53;;;2.90;10.20;;;;;;5104766;28;20193;-80
2021/04/13 04:32:48;;;;;;;7.07;4.50;;;2.90;1.00;;;;;;5089326;28;20627;-81
2021/04/13 04:35:40;;;;;;;7.30;4.97;;;2.70;1.00;;;;;;5070948;28;20218;-81
2021/04/13 04:38:25;;;;;;;7.13;5.07;;;2.50;44.80;;;;;;5103380;28;20219;-81
2021/04/13 04:40:56;;;;;;;7.33;4.57;;;2.40;99.30;;;;;;5090263;28;20221;-81
2021/04/13 04:44:01;;;;;;;6.87;4.70;;;2.50;99.90;;;;;;5090914;28;20227;-80
2021/04/13 04:46:39;;;;;;;6.60;4.50;;;2.40;84.90;;;;;;4977685;28;20255;-80
2021/04/13 04:49:15;;;;;;;10.53;5.27;;;2.60;99.90;;;;;;5000954;28;20202;-81
2021/04/13 04:51:46;;;;;;;10.43;5.10;;;2.30;71.00;;;;;;4990500;28;20648;-80
2021/04/13 04:54:14;;;;;;;7.47;5.17;;;2.50;99.90;;;;;;4996037;28;20795;-82
2021/04/13 04:56:43;;;;;;;7.50;4.53;;;2.50;64.80;;;;;;4986097;28;20202;-82
2021/04/13 04:59:10;;;;;;;6.87;4.77;;;2.40;26.60;;;;;;4999353;28;20281;-83
2021/04/13 05:01:36;;;;;;;8.33;4.53;;;2.20;99.90;;;;;;4974579;28;20201;-81
2021/04/13 05:04:03;;;;;;;7.23;5.00;;;2.40;99.90;;;;;;4988567;28;20225;-81
2021/04/13 05:06:29;;;;;;;10.47;4.97;;;2.60;99.90;;;;;;4987163;28;20194;-82
2021/04/13 05:08:56;;;;;;;10.47;5.33;;;2.80;24.60;;;;;;5001223;28;20194;-82
2021/04/13 05:11:24;;;;;;;7.53;5.17;;;2.80;1.00;;;;;;4992013;28;20601;-82
2021/04/13 05:13:52;;;;;;;7.53;4.73;;;2.90;1.00;;;;;;5003179;28;20987;-81
2021/04/13 05:16:19;;;;;;;7.00;4.50;;;2.70;1.00;;;;;;4994706;28;20254;-81
2021/04/13 05:18:46;;;;;;;8.10;4.40;;;2.80;1.00;;;;;;5006988;28;20720;-82
2021/04/13 05:21:12;;;;;;;9.50;4.40;;;2.70;1.00;;;;;;5055261;28;20213;-82
2021/04/13 05:23:42;;;;;;;6.37;4.50;;;2.50;41.10;;;;;;5078881;28;20207;-81
2021/04/13 05:26:09;;;;;;;8.67;4.60;;;2.80;99.90;;;;;;5072682;28;20202;-83
2021/04/13 05:28:37;;;;;;;9.80;5.20;;;2.70;1.00;;;;;;5076128;28;20233;-81
2021/04/13 05:31:04;;;;;;;7.17;5.13;;;2.70;1.00;;;;;;5092647;28;20215;-82
2021/04/13 05:33:31;;;;;;;8.60;4.90;;;2.70;90.50;;;;;;5075291;28;20227;-83
2021/04/13 05:35:59;;;;;;;7.27;4.47;;;2.70;99.90;;;;;;5063657;28;20209;-82
2021/04/13 05:38:29;;;;;;;9.67;5.40;;;2.90;8.60;;;;;;5063587;28;20249;-81
2021/04/13 05:40:58;;;;;;;9.57;5.13;;;2.90;1.00;;;;;;5071090;28;20736;-79
2021/04/13 05:43:25;;;;;;;7.17;4.60;;;2.70;1.00;;;;;;5088187;28;20196;-81
2021/04/13 05:45:57;;;;;;;11.80;5.07;;;2.70;90.60;;;;;;5037639;28;20277;-79
2021/04/13 05:48:25;;;;;;;6.90;4.67;;;2.50;99.90;;;;;;5088565;28;20195;-80
2021/04/13 05:50:53;;;;;;;8.13;4.47;;;2.90;99.90;;;;;;5060653;28;20608;-82
2021/04/13 05:53:20;;;;;;;9.77;5.50;;;3.00;99.90;;;;;;5090218;28;20268;-81
2021/04/13 05:55:47;;;;;;;7.13;4.57;;;3.00;12.60;;;;;;5073539;28;20203;-81
2021/04/13 05:58:22;;;;;;;9.20;4.67;;;3.10;44.90;;;;;;5092354;28;20634;-81
2021/04/13 06:00:52;;;;;;;6.77;4.80;;;3.10;1.00;;;;;;5073644;28;20584;-82
2021/04/13 06:03:20;;;;;;;7.07;4.80;;;3.10;9.20;;;;;;5098762;28;20204;-80
2021/04/13 06:05:50;;;;;;;9.37;4.90;;;3.30;1.00;;;;;;5073244;28;20203;-80
2021/04/13 06:08:16;;;;;;;7.93;4.70;;;3.30;1.00;;;;;;5064873;28;20200;-79
2021/04/13 06:10:43;;;;;;;7.63;4.83;;;3.30;84.40;;;;;;5089492;28;20199;-81
2021/04/13 06:13:09;;;;;;;8.03;4.30;;;3.40;1.00;;;;;;5062728;28;20254;-81
2021/04/13 06:15:36;;;;;;;8.33;5.00;;;3.50;1.00;;;;;;5073766;28;20679;-82
2021/04/13 06:18:03;;;;;;;7.27;4.80;;;3.50;1.00;;;;;;5047428;28;20209;-80
2021/04/13 06:20:32;;;;;;;6.00;4.20;;;3.60;1.00;;;;;;5058113;28;20558;-81
2021/04/13 06:22:59;;;;;;;5.43;4.67;;;3.70;1.00;;;;;;5058831;28;20298;-80
2021/04/13 06:25:29;;;;;;;11.57;4.70;;;3.80;1.00;;;;;;5073439;28;20627;-80
2021/04/13 06:27:57;;;;;;;9.60;5.27;;;3.90;1.00;;;;;;5071260;28;20320;-81
2021/04/13 06:30:28;;;;;;;11.77;4.60;;;4.00;1.00;;;;;;5052617;28;20257;-81
2021/04/13 06:32:59;;;;;;;5.33;3.50;;;4.10;1.00;;;;;;5073246;28;20304;-80
2021/04/13 06:35:28;;;;;;;10.30;4.07;;;4.30;1.00;;;;;;5088004;28;20689;-81
2021/04/13 06:37:59;;;;;;;7.47;3.57;;;4.30;1.00;;;;;;5102304;27;20208;-80
2021/04/13 06:40:28;;;;;;;6.13;3.80;;;4.30;1.00;;;;;;5097100;28;20513;-80
2021/04/13 06:43:15;;;;;;;5.13;3.63;;;4.40;1.00;;;;;;5119269;28;20194;-80
2021/04/13 06:46:25;;;;;;;5.57;3.67;;;4.40;1.00;;;;;;5096544;28;20213;-81
2021/04/13 06:49:05;;;;;;;9.17;4.10;;;4.50;1.00;;;;;;5108990;28;20206;-82
2021/04/13 06:52:07;;;;;;;7.47;4.07;;;4.70;1.00;;;;;;5095366;28;20199;-82
2021/04/13 06:55:06;;;;;;;5.83;3.37;;;4.90;1.00;;;;;;5079779;28;20221;-82
2021/04/13 06:58:01;;;;;;;9.93;4.00;;;5.00;1.00;;;;;;5089332;28;20208;-80
2021/04/13 07:00:34;;;;;;;9.03;3.63;;;5.30;1.00;;;;;;5111382;28;20235;-82
2021/04/13 07:03:32;;;;;;;7.93;3.80;;;5.50;40.00;;;;;;5111813;28;20202;-80
2021/04/13 07:06:17;;;;;;;4.93;3.10;;;5.70;1.00;;;;;;5110347;28;20290;-80
2021/04/13 07:09:03;;;;;;;6.03;3.37;;;5.90;1.00;;;;;;5112457;28;20206;-81
2021/04/13 07:11:47;;;;;;;6.67;3.23;;;5.70;1.00;;;;;;5091230;28;20198;-78
2021/04/13 07:14:29;;;;;;;11.07;3.20;;;5.80;91.60;;;;;;5106145;28;20206;-81
2021/04/13 07:17:14;;;;;;;7.13;3.23;;;6.00;1.00;;;;;;5087114;28;20199;-80
2021/04/13 07:19:48;;;;;;;9.97;3.20;;;6.20;1.00;;;;;;5107468;28;20213;-78
2021/04/13 07:22:39;;;;;;;5.40;3.07;;;6.30;96.20;;;;;;5088916;28;20207;-78
2021/04/13 07:25:13;;;;;;;6.93;3.13;;;6.70;1.00;;;;;;5089939;28;20651;-80
2021/04/13 07:28:00;;;;;;;6.83;3.73;;;6.80;1.00;;;;;;5089572;28;20198;-77
2021/04/13 07:30:29;;;;;;;9.63;3.23;;;7.00;97.70;;;;;;5086413;28;20196;-78
2021/04/13 07:32:58;;;;;;;8.47;2.03;;;7.70;1.00;;;;;;5082667;28;20307;-78
2021/04/13 07:35:39;;;;;;;4.97;2.03;;;7.90;99.90;;;;;;5083307;28;20196;-81
2021/04/13 07:38:29;;;;;;;3.47;1.50;;;8.30;1.00;;;;;;5091352;28;20198;-79
2021/04/13 07:41:04;;;;;;;3.37;1.57;;;8.80;1.00;;;;;;5101600;28;20249;-81
2021/04/13 07:45:37;;;;;;;3.07;1.43;;;9.10;99.90;;;;;;5046194;28;20567;-54
2021/04/13 07:48:12;;;;;;;4.77;1.97;;;8.60;99.90;;;;;;5050381;28;20217;-53
2021/04/13 07:50:50;;;;;;;4.37;1.60;;;8.70;98.50;;;;;;5056656;28;20200;-53
2021/04/13 07:53:22;;;;;;;5.03;1.57;;;8.80;99.90;;;;;;5057430;28;20241;-53
2021/04/13 07:55:56;;;;;;;7.20;1.20;;;9.20;99.90;;;;;;5052393;28;20287;-53
2021/04/13 07:58:47;;;;;;;5.50;1.90;;;9.30;98.20;;;;;;5046411;28;20222;-53
2021/04/13 08:01:14;;;;;;;3.90;1.67;;;9.40;99.10;;;;;;5047642;28;20259;-53
2021/04/13 08:03:41;;;;;;;4.30;1.63;;;9.60;96.70;;;;;;5053009;28;20295;-53
2021/04/13 08:06:26;;;;;;;4.50;1.23;;;9.90;94.20;;;;;;5047458;28;20240;-53
2021/04/13 08:09:33;;;;;;;2.90;0.90;;;9.60;95.70;;;;;;5057549;28;20208;-53
2021/04/13 08:12:20;;;;;;;4.80;1.27;;;9.40;95.10;;;;;;5025711;28;20221;-53
2021/04/13 08:14:55;;;;;;;3.77;1.23;;;9.70;95.40;;;;;;5049731;28;20269;-53
2021/04/13 08:17:31;;;;;;;5.67;1.40;;;10.00;94.00;;;;;;5052103;28;20292;-53
2021/04/13 08:20:25;;;;;;;5.70;1.10;;;9.80;92.20;;;;;;5048842;28;20555;-53
2021/04/13 08:23:01;;;;;;;4.93;1.13;;;9.70;93.70;;;;;;5058228;28;20197;-53
2021/04/13 08:25:51;;;;;;;2.43;0.93;;;9.50;92.50;;;;;;5056799;28;20299;-53
2021/04/13 08:28:27;;;;;;;2.33;0.90;;;9.50;93.30;;;;;;5053581;28;20702;-53
2021/04/13 08:34:25;;;;;;;5.93;1.20;;;10.00;92.40;;;;;;5052818;28;20232;-53
2021/04/13 08:36:57;;;;;;;5.90;1.30;;;9.80;92.60;;;;;;5053265;28;20292;-53
2021/04/13 08:39:26;;;;;;;1.10;0.77;;;9.50;90.40;;;;;;5050170;28;20234;-52
2021/04/13 08:42:06;;;;;;;4.57;0.80;;;9.40;90.20;;;;;;5052782;28;20225;-53
2021/04/13 08:44:49;;;;;;;2.97;0.50;;;9.00;91.10;;;;;;5048937;28;20772;-53
2021/04/13 08:47:21;;;;;;;2.93;0.70;;;9.90;92.50;;;;;;5051945;28;20258;-53
2021/04/13 08:49:54;;;;;;;5.17;0.80;;;10.00;80.40;;;;;;5048981;28;20201;-53
2021/04/13 08:52:29;;;;;;;4.73;0.90;;;10.70;81.70;;;;;;5050739;28;20645;-53
2021/04/13 08:55:19;;;;;;;3.20;0.70;;;10.80;71.60;;;;;;5050716;28;20195;-53
2021/04/13 08:58:14;;;;;;;2.93;0.70;;;11.30;67.80;;;;;;5031260;28;20235;-53
2021/04/13 09:00:51;;;;;;;2.33;0.60;;;10.50;74.00;;;;;;5031937;28;20302;-53
2021/04/13 09:03:22;;;;;;;3.53;0.70;;;10.60;69.20;;;;;;5035397;28;20272;-53
2021/04/13 09:06:06;;;;;;;4.70;0.60;;;10.70;66.80;;;;;;5043045;28;20585;-53
2021/04/13 09:08:46;;;;;;;2.83;0.70;;;10.10;66.00;;;;;;5034144;28;20204;-53
2021/04/13 09:11:24;;;;;;;3.47;0.53;;;10.60;68.50;;;;;;5035047;28;20612;-53
2021/04/13 09:14:26;;;;;;;2.53;0.70;;;10.80;72.10;;;;;;5030763;28;20211;-53
2021/04/13 09:17:19;;;;;;;1.93;0.67;;;11.30;59.00;;;;;;5036859;28;20253;-53
2021/04/13 09:20:16;;;;;;;5.13;1.00;;;10.50;65.40;;;;;;5028272;28;20296;-53
2021/04/13 09:22:47;;;;;;;1.87;0.90;;;11.60;67.00;;;;;;5032381;28;20659;-54
2021/04/13 09:25:33;;;;;;;2.87;0.50;;;11.60;57.00;;;;;;5034968;28;20706;-53
2021/04/13 09:28:20;;;;;;;4.10;0.80;;;11.70;51.20;;;;;;5039296;28;20247;-53
2021/04/13 09:30:47;;;;;;;3.43;0.80;;;12.00;49.80;;;;;;5038820;28;20288;-53
2021/04/13 09:33:19;;;;;;;3.03;0.80;;;12.60;47.50;;;;;;5032922;28;20261;-52
2021/04/13 09:35:53;;;;;;;4.13;0.70;;;12.70;46.40;;;;;;5031658;28;20206;-52
2021/04/13 09:39:00;;;;;;;3.30;0.77;;;12.10;50.20;;;;;;5031496;28;20227;-52
2021/04/13 09:41:51;;;;;;;2.47;0.67;;;11.90;51.70;;;;;;5029591;28;20234;-53
2021/04/13 09:44:41;;;;;;;2.00;1.00;;;11.70;54.70;;;;;;5034599;28;20322;-52
2021/04/13 09:47:53;;;;;;;4.03;0.80;;;11.70;50.90;;;;;;5039729;28;20233;-53
2021/04/13 09:50:35;;;;;;;4.40;0.90;;;10.90;55.20;;;;;;5027680;28;20619;-52
2021/04/13 09:53:44;;;;;;;1.17;0.60;;;12.00;54.00;;;;;;5031110;28;20204;-53
2021/04/13 09:57:15;;;;;;;4.60;0.40;;;12.90;46.30;;;;;;5030787;28;20688;-53
2021/04/13 09:59:51;;;;;;;1.30;0.70;;;12.10;42.10;;;;;;5028934;28;20877;-53
2021/04/13 10:02:46;;;;;;;2.40;0.60;;;11.90;46.60;;;;;;5035384;28;20224;-53
2021/04/13 10:05:18;;;;;;;4.30;0.70;;;11.80;44.10;;;;;;5026863;28;21853;-53
2021/04/13 10:08:07;;;;;;;2.13;0.50;;;12.40;45.90;;;;;;5033222;28;20204;-53
2021/04/13 10:10:52;;;;;;;1.03;0.40;;;12.30;41.50;;;;;;5042523;28;20604;-53
2021/04/13 10:13:48;;;;;;;3.60;0.70;;;12.10;40.00;;;;;;5038727;28;20266;-53
2021/04/13 10:16:19;;;;;;;1.63;0.50;;;12.30;37.90;;;;;;5036293;28;20285;-52
2021/04/13 10:18:57;;;;;;;2.40;0.40;;;12.20;38.80;;;;;;5032163;28;20227;-53
2021/04/13 10:21:41;;;;;;;3.33;0.70;;;12.60;37.80;;;;;;5031510;28;20286;-53
2021/04/13 10:24:43;;;;;;;2.37;1.07;;;12.40;37.80;;;;;;5031477;28;20236;-53
2021/04/13 10:27:28;;;;;;;2.40;0.70;;;12.70;34.00;;;;;;5034646;28;20266;-54
2021/04/13 10:30:32;;;;;;;5.40;1.40;;;12.50;30.20;;;;;;5030302;28;20597;-54
2021/04/13 10:33:46;;;;;;;3.80;0.70;;;12.20;29.90;;;;;;5033049;28;20201;-54
2021/04/13 10:36:31;;;;;;;1.53;0.73;;;12.80;28.90;;;;;;5033265;28;20204;-54
2021/04/13 10:38:57;;;;;;;2.07;0.83;;;12.60;28.30;;;;;;5034582;28;20188;-53
2021/04/13 10:41:26;;;;;;;2.00;0.70;;;13.00;31.10;;;;;;5042552;28;20196;-53
2021/04/13 10:44:11;;;;;;;1.40;0.80;;;13.00;29.70;;;;;;5033561;28;20237;-53
2021/04/13 10:47:31;;;;;;;3.27;0.87;;;13.10;26.60;;;;;;5036462;28;20338;-53
2021/04/13 10:50:33;;;;;;;1.33;0.83;;;12.20;29.40;;;;;;4921526;29;20200;-58
2021/04/13 10:53:20;;;;;;;2.43;0.50;;;11.80;30.80;;;;;;5035390;28;20208;-55
2021/04/13 10:56:10;;;;;;;2.47;1.13;;;11.80;33.60;;;;;;5033839;28;20305;-54
2021/04/13 10:58:48;;;;;;;1.80;0.80;;;12.20;33.50;;;;;;5012187;28;20240;-56
2021/04/13 11:01:30;;;;;;;0.97;0.67;;;12.90;33.90;;;;;;5033200;28;20212;-56
2021/04/13 11:04:28;;;;;;;2.73;0.73;;;12.90;27.70;;;;;;5038147;28;20247;-53
2021/04/13 11:07:40;;;;;;;5.03;0.90;;;12.70;24.10;;;;;;5029598;28;20259;-53
2021/04/13 11:10:33;;;;;;;4.40;0.80;;;11.60;26.80;;;;;;5030004;28;20307;-53
2021/04/13 11:13:30;;;;;;;2.97;0.87;;;12.00;28.90;;;;;;5033282;28;20228;-52
2021/04/13 11:16:17;;;;;;;1.00;0.80;;;13.30;29.30;;;;;;5038040;28;20222;-53
2021/04/13 11:19:00;;;;;;;1.43;0.50;;;13.80;22.70;;;;;;5037590;28;20627;-53
2021/04/13 11:22:00;;;;;;;1.27;0.70;;;14.20;22.50;;;;;;5034093;28;20624;-55
2021/04/13 11:24:59;;;;;;;3.23;1.03;;;14.70;21.10;;;;;;5033749;28;20839;-53
2021/04/13 11:27:46;;;;;;;1.30;0.70;;;14.30;17.40;;;;;;5037848;28;20700;-53
2021/04/13 11:30:31;;;;;;;2.00;1.13;;;12.90;19.40;;;;;;5043133;28;20232;-53
2021/04/13 11:33:25;;;;;;;3.03;0.90;;;12.00;20.60;;;;;;5029259;28;20210;-53
2021/04/13 11:36:23;;;;;;;2.00;0.80;;;12.10;24.00;;;;;;5031067;28;20201;-53
2021/04/13 11:39:15;;;;;;;2.53;0.80;;;12.10;26.90;;;;;;5030263;28;20205;-52
2021/04/13 11:41:52;;;;;;;2.67;0.70;;;11.90;27.90;;;;;;5034762;28;20687;-53
2021/04/13 11:44:57;;;;;;;1.90;0.80;;;12.70;24.10;;;;;;5030579;28;20617;-53
2021/04/13 11:47:37;;;;;;;2.73;0.83;;;12.50;23.30;;;;;;5032616;28;20774;-55
2021/04/13 11:50:22;;;;;;;2.23;0.80;;;12.00;22.90;;;;;;5026357;28;20227;-53
2021/04/13 11:52:53;;;;;;;3.20;0.90;;;11.80;21.80;;;;;;5030918;28;20210;-53
2021/04/13 11:55:31;;;;;;;1.23;0.50;;;11.30;23.50;;;;;;5029437;28;20200;-53
2021/04/13 11:58:18;;;;;;;1.37;0.60;;;11.70;23.20;;;;;;5033748;28;20286;-53
2021/04/13 12:00:46;;;;;;;2.30;0.73;;;12.30;22.60;;;;;;5028442;28;20552;-53
2021/04/13 12:03:15;;;;;;;1.50;0.70;;;13.20;19.30;;;;;;5032882;28;20769;-53
2021/04/13 12:06:04;;;;;;;1.73;0.70;;;13.00;12.30;;;;;;5035161;28;20188;-53
2021/04/13 12:08:37;;;;;;;2.63;1.20;;;13.70;9.50;;;;;;5026667;28;20274;-53
2021/04/13 12:11:37;;;;;;;1.97;0.70;;;13.90;8.40;;;;;;5031243;28;20197;-53
2021/04/13 12:14:49;;;;;;;1.63;0.83;;;14.00;3.10;;;;;;5032705;28;20214;-53
2021/04/13 12:17:44;;;;;;;1.80;0.70;;;14.50;2.10;;;;;;5032271;28;20282;-52
2021/04/13 12:20:40;;;;;;;0.50;0.50;;;14.20;2.00;;;;;;5026700;28;20200;-53
2021/04/13 12:23:06;;;;;;;1.57;1.00;;;13.80;1.00;;;;;;5036146;28;20193;-53
2021/04/13 12:25:50;;;;;;;0.70;0.70;;;14.00;1.20;;;;;;5029597;28;20272;-53
2021/04/13 12:28:18;;;;;;;0.70;0.60;;;13.90;1.00;;;;;;5034341;28;20220;-54
2021/04/13 12:30:45;;;;;;;4.80;0.90;;;13.90;1.00;;;;;;5035970;28;20284;-54
2021/04/13 12:33:31;;;;;;;2.97;1.00;;;14.00;1.00;;;;;;5029982;28;20778;-54
2021/04/13 12:36:05;;;;;;;1.00;0.70;;;14.00;1.00;;;;;;5030002;28;20362;-54
2021/04/13 12:38:51;;;;;;;2.67;0.80;;;13.60;1.00;;;;;;5041502;28;20276;-54
2021/04/13 12:41:52;;;;;;;3.07;1.00;;;13.10;1.00;;;;;;5031747;28;20245;-54
2021/04/13 12:44:19;;;;;;;1.93;0.63;;;12.70;2.80;;;;;;5031786;28;20251;-54
2021/04/13 12:46:51;;;;;;;3.23;1.23;;;12.30;7.20;;;;;;5032320;28;20521;-54
2021/04/13 12:49:27;;;;;;;3.00;0.90;;;11.80;8.70;;;;;;5034184;28;20259;-54
2021/04/13 12:52:26;;;;;;;1.43;0.73;;;11.50;11.40;;;;;;5032388;28;20196;-52
2021/04/13 12:54:52;;;;;;;1.00;0.90;;;11.70;12.90;;;;;;5034883;28;20228;-54
2021/04/13 12:57:25;;;;;;;1.80;0.70;;;11.40;15.90;;;;;;5034613;28;20240;-54
2021/04/13 13:00:06;;;;;;;1.77;1.00;;;11.50;17.10;;;;;;5033215;28;20813;-52
2021/04/13 13:02:38;;;;;;;1.60;0.93;;;11.40;17.70;;;;;;5032465;28;20242;-52
2021/04/13 13:05:32;;;;;;;2.47;0.97;;;11.40;18.30;;;;;;5032031;28;20319;-52
2021/04/13 13:08:28;;;;;;;2.07;0.80;;;11.90;19.10;;;;;;5038609;28;20208;-53
2021/04/13 13:10:57;;;;;;;3.47;0.90;;;12.40;15.60;;;;;;5031263;28;20197;-52
2021/04/13 13:13:28;;;;;;;1.13;0.70;;;12.80;11.70;;;;;;5036076;28;20290;-52
2021/04/13 13:15:56;;;;;;;1.67;0.77;;;12.40;12.10;;;;;;5033011;28;20196;-53
2021/04/13 13:18:35;;;;;;;1.27;0.90;;;12.30;12.10;;;;;;5032229;28;20220;-53
2021/04/13 13:21:05;;;;;;;9.63;1.20;;;12.50;11.10;;;;;;5036738;28;20285;-52
2021/04/13 13:23:38;;;;;;;1.10;0.63;;;12.40;7.20;;;;;;5036089;28;20253;-55
2021/04/13 13:26:21;;;;;;;4.40;0.80;;;12.50;5.40;;;;;;5037478;28;20235;-53
2021/04/13 13:28:47;;;;;;;2.03;1.00;;;12.90;8.00;;;;;;5031400;28;20668;-53
2021/04/13 13:31:25;;;;;;;4.77;0.80;;;12.10;11.40;;;;;;5038394;28;20243;-53
2021/04/13 13:33:58;;;;;;;2.00;0.90;;;12.20;11.70;;;;;;5029754;28;20285;-54
2021/04/13 13:36:26;;;;;;;4.83;1.00;;;11.80;11.90;;;;;;5029478;28;20235;-53
2021/04/13 13:38:58;;;;;;;1.70;0.73;;;11.80;13.70;;;;;;5030673;28;20294;-53
2021/04/13 13:41:26;;;;;;;1.27;0.90;;;11.90;14.00;;;;;;5031986;28;20227;-53
2021/04/13 13:43:53;;;;;;;2.20;1.10;;;11.80;10.50;;;;;;5027584;28;20394;-53
2021/04/13 13:46:25;;;;;;;1.47;0.97;;;11.60;8.80;;;;;;5036597;28;20785;-53
2021/04/13 13:48:53;;;;;;;2.50;1.40;;;11.70;11.90;;;;;;5028165;28;20252;-53
2021/04/13 13:51:24;;;;;;;1.87;1.00;;;12.00;12.20;;;;;;5031158;28;20324;-62
2021/04/13 13:54:10;;;;;;;2.30;1.03;;;12.20;13.20;;;;;;5039754;28;20230;-53
2021/04/13 13:56:37;;;;;;;4.13;1.37;;;12.80;14.60;;;;;;5038144;28;20232;-54
2021/04/13 13:59:21;;;;;;;1.00;0.80;;;13.20;11.40;;;;;;5030582;28;20211;-54
2021/04/13 14:01:58;;;;;;;3.03;1.43;;;13.10;9.40;;;;;;5037922;28;20288;-53